createdAt,value
2019-03-31T00:01:54.444Z,62.17
2019-03-31T00:04:24.156Z,62.80
2019-03-31T00:06:55.384Z,65.83
2019-03-31T00:09:24.340Z,58.73
2019-03-31T00:11:54.465Z,58.70
2019-03-31T00:14:24.331Z,61.57
2019-03-31T00:16:54.581Z,60.33
2019-03-31T00:19:25.619Z,62.20
2019-03-31T00:21:58.290Z,73.07
2019-03-31T00:24:28.341Z,60.83
2019-03-31T00:26:57.216Z,63.50
2019-03-31T00:29:28.771Z,59.00
2019-03-31T00:31:59.248Z,64.50
2019-03-31T00:34:28.159Z,63.03
2019-03-31T00:36:56.996Z,59.63
2019-03-31T00:39:25.847Z,60.30
2019-03-31T00:41:54.695Z,65.77
2019-03-31T00:44:23.585Z,58.63
2019-03-31T00:46:53.055Z,62.27
2019-03-31T00:49:21.959Z,65.07
2019-03-31T00:51:52.886Z,61.77
2019-03-31T00:54:22.398Z,70.17
2019-03-31T00:56:51.226Z,82.70
2019-03-31T00:59:20.143Z,60.50
2019-03-31T01:01:50.577Z,67.90
2019-03-31T01:04:21.019Z,62.77
2019-03-31T01:06:52.982Z,62.27
2019-03-31T01:09:25.965Z,64.07
2019-03-31T01:11:55.377Z,61.20
2019-03-31T01:14:25.168Z,68.37
2019-03-31T01:16:54.488Z,69.37
2019-03-31T01:19:24.293Z,68.97
2019-03-31T01:21:53.300Z,72.90
2019-03-31T01:24:23.611Z,69.90
2019-03-31T01:26:53.328Z,73.97
2019-03-31T01:29:22.220Z,68.00
2019-03-31T01:31:51.507Z,67.47
2019-03-31T01:34:21.965Z,73.93
2019-03-31T01:36:52.260Z,73.93
2019-03-31T01:39:22.631Z,71.23
2019-03-31T01:41:53.316Z,68.93
2019-03-31T01:44:22.266Z,77.53
2019-03-31T01:46:51.042Z,79.63
2019-03-31T01:49:21.419Z,75.00
2019-03-31T01:51:53.535Z,83.23
2019-03-31T01:54:29.897Z,93.03
2019-03-31T01:57:00.131Z,87.17
2019-03-31T01:59:29.056Z,96.10
2019-03-31T02:02:03.960Z,95.57
2019-03-31T02:04:28.844Z,105.50
2019-03-31T02:06:57.716Z,88.73
2019-03-31T02:09:26.611Z,98.07
2019-03-31T02:11:55.429Z,103.70
2019-03-31T02:14:24.840Z,100.00
2019-03-31T02:16:55.230Z,97.10
2019-03-31T02:19:27.099Z,106.67
2019-03-31T02:21:57.323Z,103.53
2019-03-31T02:24:26.102Z,103.87
2019-03-31T02:26:55.195Z,106.23
2019-03-31T02:29:24.666Z,97.60
2019-03-31T02:31:53.634Z,104.77
2019-03-31T02:34:22.542Z,98.23
2019-03-31T02:36:51.475Z,101.63
2019-03-31T02:39:20.425Z,99.70
2019-03-31T02:41:49.466Z,96.67
2019-03-31T02:44:18.612Z,99.07
2019-03-31T02:46:47.644Z,87.47
2019-03-31T02:49:16.613Z,102.63
2019-03-31T02:51:47.037Z,103.73
2019-03-31T02:54:16.309Z,102.27
2019-03-31T02:56:46.029Z,98.77
2019-03-31T02:59:18.348Z,109.17
2019-03-31T03:01:47.862Z,99.03
2019-03-31T03:04:18.795Z,101.53
2019-03-31T03:06:49.987Z,105.10
2019-03-31T03:09:20.618Z,97.00
2019-03-31T03:11:51.159Z,107.37
2019-03-31T03:14:21.159Z,114.23
2019-03-31T03:16:50.069Z,114.90
2019-03-31T03:19:19.268Z,115.07
2019-03-31T03:21:52.154Z,110.77
2019-03-31T03:24:18.887Z,108.53
2019-03-31T03:26:47.667Z,111.23
2019-03-31T03:29:16.638Z,124.73
2019-03-31T03:31:45.443Z,130.27
2019-03-31T03:34:14.302Z,128.83
2019-03-31T03:36:43.731Z,133.87
2019-03-31T03:39:12.906Z,114.03
2019-03-31T03:41:43.127Z,129.07
2019-03-31T03:44:11.913Z,108.73
2019-03-31T03:46:40.810Z,122.63
2019-03-31T03:49:09.822Z,121.20
2019-03-31T03:51:39.788Z,128.53
2019-03-31T03:54:09.118Z,120.90
2019-03-31T03:56:38.053Z,120.77
2019-03-31T03:59:06.943Z,124.57
2019-03-31T04:01:35.874Z,131.07
2019-03-31T04:04:04.771Z,123.70
2019-03-31T04:06:33.575Z,117.10
2019-03-31T04:09:02.508Z,139.27
2019-03-31T04:11:31.310Z,135.73
2019-03-31T04:14:00.230Z,120.17
2019-03-31T04:16:29.651Z,136.63
2019-03-31T04:18:58.585Z,130.20
2019-03-31T04:21:27.630Z,133.40
2019-03-31T04:23:56.543Z,114.37
2019-03-31T04:26:26.920Z,137.23
2019-03-31T04:28:55.964Z,132.90
2019-03-31T04:31:25.181Z,118.73
2019-03-31T04:33:54.054Z,120.10
2019-03-31T04:36:24.003Z,112.47
2019-03-31T04:38:52.918Z,115.33
2019-03-31T04:41:21.840Z,127.67
2019-03-31T04:43:50.788Z,120.17
2019-03-31T04:46:19.766Z,113.73
2019-03-31T04:48:48.634Z,116.00
2019-03-31T04:51:17.531Z,129.33
2019-03-31T04:53:46.398Z,120.50
2019-03-31T04:56:15.289Z,104.70
2019-03-31T04:58:44.145Z,109.80
2019-03-31T05:01:13.004Z,100.77
2019-03-31T05:03:41.824Z,110.00
2019-03-31T05:06:11.316Z,110.63
2019-03-31T05:08:40.166Z,116.73
2019-03-31T05:11:09.087Z,109.83
2019-03-31T05:13:38.032Z,108.80
2019-03-31T05:16:06.925Z,113.53
2019-03-31T05:18:35.727Z,97.70
2019-03-31T05:21:04.585Z,106.87
2019-03-31T05:23:35.312Z,107.00
2019-03-31T05:26:03.958Z,90.67
2019-03-31T05:28:32.708Z,100.83
2019-03-31T05:31:02.577Z,95.00
2019-03-31T05:33:31.415Z,101.73
2019-03-31T05:36:00.321Z,105.13
2019-03-31T05:38:29.580Z,100.70
2019-03-31T05:40:58.396Z,101.70
2019-03-31T05:43:27.228Z,93.33
2019-03-31T05:45:56.178Z,97.77
2019-03-31T05:48:25.184Z,89.07
2019-03-31T05:50:54.014Z,92.63
2019-03-31T05:53:22.743Z,96.33
2019-03-31T05:55:51.892Z,88.10
2019-03-31T05:58:20.746Z,82.50
2019-03-31T06:00:51.003Z,91.67
2019-03-31T06:03:19.826Z,99.63
2019-03-31T06:05:48.677Z,92.57
2019-03-31T06:08:17.491Z,94.57
2019-03-31T06:10:46.297Z,95.47
2019-03-31T06:13:15.159Z,84.97
2019-03-31T06:15:44.100Z,95.63
2019-03-31T06:18:12.951Z,100.97
2019-03-31T06:20:42.087Z,90.13
2019-03-31T06:23:13.544Z,97.97
2019-03-31T06:25:44.287Z,67.30
2019-03-31T06:28:14.716Z,89.23
2019-03-31T06:30:45.088Z,91.17
2019-03-31T06:33:13.964Z,81.97
2019-03-31T06:35:42.813Z,76.30
2019-03-31T06:38:13.241Z,88.63
2019-03-31T06:40:43.817Z,84.80
2019-03-31T06:43:12.711Z,75.77
2019-03-31T06:45:41.616Z,85.70
2019-03-31T06:48:10.691Z,71.13
2019-03-31T06:50:40.005Z,95.53
2019-03-31T06:53:09.100Z,83.30
2019-03-31T06:55:41.879Z,83.70
2019-03-31T06:58:10.890Z,86.77
2019-03-31T07:00:39.776Z,78.70
2019-03-31T07:03:08.704Z,69.60
2019-03-31T07:05:39.232Z,77.60
2019-03-31T07:08:08.077Z,85.23
2019-03-31T07:10:40.019Z,89.33
2019-03-31T07:13:09.030Z,80.63
2019-03-31T07:15:42.176Z,79.50
2019-03-31T07:18:11.107Z,73.00
2019-03-31T07:20:41.397Z,75.40
2019-03-31T07:23:10.532Z,83.73
2019-03-31T07:25:40.906Z,64.50
2019-03-31T07:28:09.902Z,81.47
2019-03-31T07:30:42.068Z,77.93
2019-03-31T07:33:10.860Z,78.20
2019-03-31T07:35:39.848Z,77.67
2019-03-31T07:38:08.715Z,72.10
2019-03-31T07:40:39.691Z,67.77
2019-03-31T07:43:11.595Z,77.10
2019-03-31T07:45:41.462Z,73.00
2019-03-31T07:48:15.337Z,77.67
2019-03-31T07:50:49.544Z,66.60
2019-03-31T07:53:16.057Z,65.23
2019-03-31T07:55:45.572Z,70.17
2019-03-31T07:58:14.466Z,67.33
2019-03-31T08:00:43.301Z,63.97
2019-03-31T08:03:12.225Z,65.90
2019-03-31T08:05:42.983Z,62.20
2019-03-31T08:08:14.005Z,54.90
2019-03-31T08:10:44.442Z,38.97
2019-03-31T08:13:13.304Z,44.23
2019-03-31T08:15:42.336Z,38.90
2019-03-31T08:18:11.355Z,38.20
2019-03-31T08:20:40.325Z,38.13
2019-03-31T08:23:09.682Z,40.53
2019-03-31T08:25:39.970Z,36.70
2019-03-31T08:28:08.866Z,33.83
2019-03-31T08:30:39.257Z,34.60
2019-03-31T08:33:08.087Z,33.23
2019-03-31T08:35:47.151Z,25.10
2019-03-31T08:38:07.911Z,23.17
2019-03-31T08:40:38.308Z,20.40
2019-03-31T08:43:07.061Z,20.97
2019-03-31T08:45:40.625Z,21.60
2019-03-31T08:48:06.550Z,21.17
2019-03-31T08:50:35.416Z,18.63
2019-03-31T08:53:04.254Z,20.27
2019-03-31T08:55:33.456Z,30.27
2019-03-31T08:58:02.411Z,23.33
2019-03-31T09:00:33.144Z,21.70
2019-03-31T09:03:02.042Z,23.70
2019-03-31T09:05:30.956Z,29.90
2019-03-31T09:07:59.960Z,25.60
2019-03-31T09:10:34.330Z,27.27
2019-03-31T09:13:05.606Z,23.33
2019-03-31T09:15:36.342Z,20.73
2019-03-31T09:18:05.606Z,20.07
2019-03-31T09:21:01.246Z,15.60
2019-03-31T09:23:30.168Z,21.47
2019-03-31T09:25:59.082Z,14.10
2019-03-31T09:28:31.408Z,19.50
2019-03-31T09:31:00.442Z,15.07
2019-03-31T09:33:29.330Z,19.40
2019-03-31T09:35:58.666Z,15.00
2019-03-31T09:38:51.757Z,11.57
2019-03-31T09:41:28.446Z,15.40
2019-03-31T09:43:57.509Z,16.23
2019-03-31T09:46:26.439Z,16.83
2019-03-31T09:48:55.523Z,14.60
2019-03-31T09:51:26.002Z,20.53
2019-03-31T09:53:57.461Z,11.47
2019-03-31T09:56:26.302Z,10.53
2019-03-31T09:58:57.971Z,10.83
2019-03-31T10:01:27.421Z,11.80
2019-03-31T10:03:56.260Z,12.67
2019-03-31T10:06:30.529Z,17.00
2019-03-31T10:08:58.446Z,11.40
2019-03-31T10:11:28.851Z,14.23
2019-03-31T10:13:57.853Z,8.47
2019-03-31T10:16:26.714Z,14.70
2019-03-31T10:18:55.625Z,12.13
2019-03-31T10:21:24.515Z,9.13
2019-03-31T10:23:53.452Z,12.07
2019-03-31T10:26:31.939Z,21.60
2019-03-31T10:28:54.736Z,13.60
2019-03-31T10:31:23.640Z,15.00
2019-03-31T10:33:52.567Z,14.17
2019-03-31T10:36:21.382Z,19.47
2019-03-31T10:38:50.477Z,22.27
2019-03-31T10:41:22.058Z,15.97
2019-03-31T10:43:50.980Z,20.43
2019-03-31T10:46:20.015Z,12.67
2019-03-31T10:48:49.550Z,20.30
2019-03-31T10:51:19.894Z,17.90
2019-03-31T10:53:52.434Z,13.13
2019-03-31T10:56:21.431Z,16.60
2019-03-31T10:58:50.683Z,13.67
2019-03-31T11:01:21.984Z,12.20
2019-03-31T11:03:52.823Z,10.83
2019-03-31T11:06:21.775Z,16.13
2019-03-31T11:08:56.135Z,11.20
2019-03-31T11:11:25.044Z,10.87
2019-03-31T11:13:54.052Z,10.07
2019-03-31T11:16:24.322Z,16.97
2019-03-31T11:18:53.291Z,12.47
2019-03-31T11:21:24.949Z,12.47
2019-03-31T11:23:54.460Z,16.90
2019-03-31T11:26:23.355Z,12.40
2019-03-31T11:28:56.256Z,13.80
2019-03-31T11:31:25.389Z,13.20
2019-03-31T11:33:56.084Z,16.60
2019-03-31T11:36:25.100Z,13.50
2019-03-31T11:38:54.142Z,10.30
2019-03-31T11:41:23.011Z,13.13
2019-03-31T11:43:53.297Z,13.43
2019-03-31T11:46:22.187Z,19.00
2019-03-31T11:48:52.380Z,14.87
2019-03-31T11:51:21.677Z,18.07
2019-03-31T11:53:50.740Z,9.27
2019-03-31T11:56:23.354Z,11.47
2019-03-31T11:58:54.442Z,11.00
2019-03-31T12:01:23.373Z,10.87
2019-03-31T12:03:52.247Z,8.50
2019-03-31T12:06:21.622Z,15.77
2019-03-31T12:08:55.960Z,9.47
2019-03-31T12:11:36.431Z,13.17
2019-03-31T12:14:09.551Z,17.20
2019-03-31T12:16:38.758Z,15.77
2019-03-31T12:19:08.790Z,11.70
2019-03-31T12:21:52.059Z,8.03
2019-03-31T12:24:25.257Z,9.37
2019-03-31T12:26:54.381Z,12.03
2019-03-31T12:29:27.616Z,13.50
2019-03-31T12:32:00.604Z,8.27
2019-03-31T12:34:32.310Z,10.43
2019-03-31T12:37:07.152Z,8.30
2019-03-31T12:39:41.719Z,9.40
2019-03-31T12:42:14.999Z,8.77
2019-03-31T12:44:46.262Z,9.33
2019-03-31T12:47:15.212Z,10.10
2019-03-31T12:49:46.937Z,8.20
2019-03-31T12:52:25.545Z,7.50
2019-03-31T12:54:54.759Z,7.90
2019-03-31T12:57:23.715Z,8.80
2019-03-31T13:02:44.178Z,6.77
2019-03-31T13:05:14.618Z,7.73
2019-03-31T13:07:56.199Z,10.83
2019-03-31T13:10:17.899Z,9.43
2019-03-31T13:12:50.873Z,14.13
2019-03-31T13:15:23.240Z,7.27
2019-03-31T13:17:52.592Z,9.10
2019-03-31T13:20:22.967Z,6.07
2019-03-31T13:22:53.689Z,5.43
2019-03-31T13:25:22.722Z,11.77
2019-03-31T13:27:51.844Z,5.37
2019-03-31T13:30:27.548Z,6.43
2019-03-31T13:33:08.093Z,6.37
2019-03-31T13:35:53.266Z,6.80
2019-03-31T13:38:22.362Z,5.50
2019-03-31T13:40:52.807Z,6.13
2019-03-31T13:43:25.939Z,6.23
2019-03-31T13:45:59.934Z,5.90
2019-03-31T13:48:27.641Z,6.47
2019-03-31T13:51:15.740Z,7.67
2019-03-31T13:53:45.865Z,7.27
2019-03-31T13:56:15.243Z,9.73
2019-03-31T13:58:52.472Z,7.17
2019-03-31T14:01:21.245Z,9.00
2019-03-31T14:04:03.466Z,6.57
2019-03-31T14:06:31.645Z,7.47
2019-03-31T14:09:06.950Z,8.47
2019-03-31T14:11:38.435Z,10.33
2019-03-31T14:14:08.453Z,7.20
2019-03-31T14:16:37.320Z,6.10
2019-03-31T14:19:08.621Z,5.87
2019-03-31T14:21:41.655Z,12.97
2019-03-31T14:24:12.472Z,10.00
2019-03-31T14:26:42.778Z,4.90
2019-03-31T14:29:14.016Z,6.00
2019-03-31T14:31:42.940Z,8.53
2019-03-31T14:34:11.968Z,7.87
2019-03-31T14:36:40.805Z,8.50
2019-03-31T14:39:09.884Z,7.33
2019-03-31T14:41:41.516Z,7.20
2019-03-31T14:44:12.826Z,7.23
2019-03-31T14:46:42.813Z,8.37
2019-03-31T14:49:13.795Z,12.90
2019-03-31T14:51:43.500Z,10.17
2019-03-31T14:54:19.131Z,6.60
2019-03-31T14:56:55.553Z,5.80
2019-03-31T14:59:25.931Z,8.30
2019-03-31T15:01:55.306Z,6.70
2019-03-31T15:04:30.273Z,6.90
2019-03-31T15:07:03.367Z,7.33
2019-03-31T15:09:50.879Z,15.50
2019-03-31T15:12:19.923Z,5.33
2019-03-31T15:14:48.841Z,5.73
2019-03-31T15:17:20.685Z,9.00
2019-03-31T15:19:50.624Z,5.97
2019-03-31T15:22:22.580Z,8.67
2019-03-31T15:24:51.520Z,7.40
2019-03-31T15:27:20.450Z,9.40
2019-03-31T15:29:50.817Z,10.03
2019-03-31T15:32:21.019Z,11.90
2019-03-31T15:34:50.008Z,7.17
2019-03-31T15:37:28.703Z,7.43
2019-03-31T15:39:57.514Z,15.80
2019-03-31T15:42:26.795Z,7.10
2019-03-31T15:44:55.696Z,9.20
2019-03-31T15:47:27.202Z,9.13
2019-03-31T15:49:56.140Z,5.00
2019-03-31T15:52:25.017Z,8.80
2019-03-31T15:54:53.988Z,4.43
2019-03-31T15:57:22.931Z,8.03
2019-03-31T15:59:53.321Z,6.27
2019-03-31T16:02:23.950Z,8.80
2019-03-31T16:04:52.851Z,7.03
2019-03-31T16:07:21.844Z,8.00
2019-03-31T16:09:52.287Z,9.50
2019-03-31T16:12:21.169Z,9.93
2019-03-31T16:14:50.057Z,8.57
2019-03-31T16:17:21.395Z,5.03
2019-03-31T16:19:50.294Z,7.23
2019-03-31T16:22:19.176Z,11.47
2019-03-31T16:24:49.687Z,14.37
2019-03-31T16:27:18.524Z,4.87
2019-03-31T16:29:47.816Z,12.30
2019-03-31T16:32:17.763Z,12.20
2019-03-31T16:34:48.153Z,4.20
2019-03-31T16:37:17.969Z,14.73
2019-03-31T16:39:47.131Z,6.90
2019-03-31T16:42:17.198Z,12.50
2019-03-31T16:44:57.646Z,5.40
2019-03-31T16:47:16.663Z,13.00
2019-03-31T16:49:46.069Z,7.87
2019-03-31T16:52:15.232Z,6.93
2019-03-31T16:54:44.016Z,9.20
2019-03-31T16:57:14.661Z,6.00
2019-03-31T16:59:43.782Z,4.93
2019-03-31T17:02:13.758Z,12.43
2019-03-31T17:04:43.868Z,5.63
2019-03-31T17:07:12.897Z,7.57
2019-03-31T17:09:51.266Z,7.27
2019-03-31T17:12:15.447Z,7.83
2019-03-31T17:14:48.683Z,10.03
2019-03-31T17:17:18.428Z,6.70
2019-03-31T17:19:47.606Z,6.47
2019-03-31T17:22:19.196Z,8.23
2019-03-31T17:24:48.798Z,12.50
2019-03-31T17:30:08.705Z,5.63
2019-03-31T17:32:39.399Z,11.13
2019-03-31T17:35:10.103Z,8.17
2019-03-31T17:37:39.127Z,14.20
2019-03-31T17:40:08.082Z,13.10
2019-03-31T17:42:37.016Z,11.70
2019-03-31T17:45:07.366Z,7.87
2019-03-31T17:47:39.454Z,13.33
2019-03-31T17:50:10.603Z,13.40
2019-03-31T17:52:40.916Z,7.27
2019-03-31T17:55:11.762Z,10.37
2019-03-31T17:57:42.400Z,16.60
2019-03-31T18:00:28.551Z,10.07
2019-03-31T18:03:02.802Z,8.87
2019-03-31T18:05:29.002Z,12.87
2019-03-31T18:07:57.793Z,8.70
2019-03-31T18:10:28.968Z,7.47
2019-03-31T18:12:59.436Z,11.67
2019-03-31T18:15:28.478Z,13.90
2019-03-31T18:17:57.374Z,4.73
2019-03-31T18:20:26.230Z,8.57
2019-03-31T18:22:55.657Z,8.07
2019-03-31T18:25:30.322Z,8.13
2019-03-31T18:28:00.718Z,16.00
2019-03-31T18:30:30.507Z,27.17
2019-03-31T18:32:59.584Z,9.90
2019-03-31T18:35:33.742Z,8.60
2019-03-31T18:38:02.626Z,12.77
2019-03-31T18:40:35.187Z,7.50
2019-03-31T18:43:02.370Z,16.87
2019-03-31T18:45:32.534Z,13.60
2019-03-31T18:48:03.125Z,9.30
2019-03-31T18:50:33.586Z,8.17
2019-03-31T18:53:12.398Z,14.13
2019-03-31T18:55:42.954Z,8.63
2019-03-31T18:58:16.605Z,10.23
2019-03-31T19:00:48.552Z,15.40
2019-03-31T19:03:19.364Z,5.00
2019-03-31T19:05:58.448Z,8.03
2019-03-31T19:08:33.068Z,9.70
2019-03-31T19:11:05.835Z,13.03
2019-03-31T19:13:54.701Z,5.63
2019-03-31T19:16:14.533Z,10.43
2019-03-31T19:18:43.784Z,7.47
2019-03-31T19:21:20.171Z,11.17
2019-03-31T19:23:56.303Z,8.43
2019-03-31T19:26:47.790Z,9.33
2019-03-31T19:29:10.995Z,13.40
2019-03-31T19:31:43.018Z,11.57
2019-03-31T19:34:14.947Z,8.80
2019-03-31T19:36:46.275Z,4.90
2019-03-31T19:39:19.684Z,10.17
2019-03-31T19:41:51.303Z,7.67
2019-03-31T19:44:36.167Z,10.30
2019-03-31T19:47:08.475Z,3.37
2019-03-31T19:49:41.139Z,7.27
2019-03-31T19:52:13.111Z,10.00
2019-03-31T19:54:46.106Z,8.33
2019-03-31T19:57:16.650Z,7.50
2019-03-31T19:59:47.492Z,9.83
2019-03-31T20:02:17.974Z,7.53
2019-03-31T20:04:48.452Z,7.60
2019-03-31T20:07:20.200Z,11.83
2019-03-31T20:09:52.836Z,3.93
2019-03-31T20:12:24.643Z,14.97
2019-03-31T20:15:00.390Z,20.10
2019-03-31T20:17:34.408Z,16.57
2019-03-31T20:20:13.853Z,15.93
2019-03-31T20:22:52.291Z,11.83
2019-03-31T20:25:31.870Z,9.03
2019-03-31T20:28:10.325Z,3.60
2019-03-31T20:30:41.107Z,10.70
2019-03-31T20:33:11.986Z,7.50
2019-03-31T20:35:42.177Z,13.53
2019-03-31T20:38:11.061Z,7.62
2019-03-31T20:40:41.527Z,12.93
2019-03-31T20:43:11.913Z,7.57
2019-03-31T20:45:42.338Z,21.40
2019-03-31T20:48:12.415Z,5.50
2019-03-31T20:50:42.035Z,9.23
2019-03-31T20:53:12.119Z,7.00
2019-03-31T20:55:45.349Z,9.10
2019-03-31T20:58:14.201Z,7.87
2019-03-31T21:00:43.216Z,6.30
2019-03-31T21:03:14.912Z,5.30
2019-03-31T21:05:43.695Z,7.57
2019-03-31T21:08:12.640Z,4.20
2019-03-31T21:10:41.536Z,5.57
2019-03-31T21:13:13.401Z,5.83
2019-03-31T21:15:42.470Z,16.60
2019-03-31T21:18:11.367Z,11.87
2019-03-31T21:20:40.887Z,3.50
2019-03-31T21:23:09.845Z,5.87
2019-03-31T21:25:38.930Z,9.47
2019-03-31T21:28:07.810Z,6.37
2019-03-31T21:30:38.009Z,4.17
2019-03-31T21:33:07.206Z,5.13
2019-03-31T21:35:36.248Z,14.40
2019-03-31T21:38:05.244Z,11.83
2019-03-31T21:40:34.352Z,10.97
2019-03-31T21:43:04.853Z,3.80
2019-03-31T21:45:36.615Z,16.43
2019-03-31T21:48:05.502Z,9.53
2019-03-31T21:50:35.469Z,10.13
2019-03-31T21:53:04.579Z,5.73
2019-03-31T21:55:33.666Z,11.83
2019-03-31T21:58:02.618Z,4.77
2019-03-31T22:00:33.037Z,9.33
2019-03-31T22:03:01.929Z,12.47
2019-03-31T22:05:30.873Z,10.30
2019-03-31T22:07:59.724Z,8.27
2019-03-31T22:10:29.460Z,9.00
2019-03-31T22:12:58.259Z,4.40
2019-03-31T22:15:27.107Z,9.30
2019-03-31T22:17:56.771Z,11.47
2019-03-31T22:20:26.624Z,7.63
2019-03-31T22:22:55.540Z,7.10
2019-03-31T22:25:25.548Z,16.53
2019-03-31T22:27:54.413Z,13.73
2019-03-31T22:30:26.260Z,4.73
2019-03-31T22:32:55.158Z,9.97
2019-03-31T22:35:24.035Z,6.00
2019-03-31T22:37:53.036Z,10.50
2019-03-31T22:40:22.178Z,10.07
2019-03-31T22:42:51.212Z,14.10
2019-03-31T22:45:20.135Z,8.97
2019-03-31T22:47:49.816Z,4.77
2019-03-31T22:50:18.795Z,3.60
2019-03-31T22:52:47.651Z,5.07
2019-03-31T22:55:16.661Z,4.37
2019-03-31T22:57:46.407Z,10.57
2019-03-31T23:00:17.326Z,6.70
2019-03-31T23:02:46.821Z,6.77
2019-03-31T23:05:15.810Z,9.40
2019-03-31T23:07:44.655Z,16.03
2019-03-31T23:10:13.495Z,8.47
2019-03-31T23:12:42.435Z,13.63
2019-03-31T23:15:13.810Z,9.67
2019-03-31T23:17:42.630Z,11.67
2019-03-31T23:20:11.505Z,11.53
2019-03-31T23:22:40.293Z,5.60
2019-03-31T23:25:09.354Z,5.57
2019-03-31T23:27:38.191Z,4.60
2019-03-31T23:30:09.450Z,5.70
2019-03-31T23:32:38.945Z,20.23
2019-03-31T23:35:08.508Z,14.20
2019-03-31T23:37:37.293Z,5.63
2019-03-31T23:40:06.949Z,9.90
2019-03-31T23:42:35.970Z,4.70
2019-03-31T23:45:07.503Z,4.27
2019-03-31T23:47:36.632Z,6.03
2019-03-31T23:50:06.739Z,10.10
2019-03-31T23:52:35.606Z,7.10
2019-03-31T23:55:05.400Z,7.47
2019-03-31T23:57:35.785Z,5.87
